createdAt,value
2022-08-31T00:00:58.428Z,18.01
2022-08-31T00:03:43.705Z,17.96
2022-08-31T00:06:10.308Z,17.93
2022-08-31T00:08:36.935Z,17.89
2022-08-31T00:11:09.839Z,17.78
2022-08-31T00:13:39.048Z,17.77
2022-08-31T00:16:10.325Z,17.69
2022-08-31T00:18:37.792Z,17.63
2022-08-31T00:21:05.238Z,17.64
2022-08-31T00:23:32.180Z,17.64
2022-08-31T00:25:58.788Z,17.65
2022-08-31T00:28:30.050Z,17.62
2022-08-31T00:30:56.628Z,17.62
2022-08-31T00:33:23.185Z,17.60
2022-08-31T00:35:49.739Z,17.56
2022-08-31T00:38:18.895Z,17.54
2022-08-31T00:40:47.310Z,17.52
2022-08-31T00:43:41.057Z,17.47
2022-08-31T00:46:09.692Z,17.45
2022-08-31T00:48:41.847Z,17.37
2022-08-31T00:51:08.808Z,17.35
2022-08-31T00:53:38.508Z,17.36
2022-08-31T00:56:05.471Z,17.33
2022-08-31T00:58:32.093Z,17.30
2022-08-31T01:00:59.733Z,17.27
2022-08-31T01:03:26.473Z,17.24
2022-08-31T01:05:53.307Z,17.20
2022-08-31T01:08:30.745Z,17.16
2022-08-31T01:10:58.902Z,17.13
2022-08-31T01:13:28.713Z,17.13
2022-08-31T01:16:03.461Z,17.12
2022-08-31T01:18:33.443Z,17.12
2022-08-31T01:21:09.482Z,17.08
2022-08-31T01:23:45.384Z,17.06
2022-08-31T01:26:17.696Z,17.08
2022-08-31T01:28:44.658Z,17.06
2022-08-31T01:31:39.266Z,17.05
2022-08-31T01:34:06.138Z,17.04
2022-08-31T01:36:34.340Z,17.05
2022-08-31T01:39:00.919Z,17.04
2022-08-31T01:41:27.706Z,17.02
2022-08-31T01:43:54.688Z,16.94
2022-08-31T01:46:21.831Z,16.97
2022-08-31T01:48:49.205Z,16.96
2022-08-31T01:51:18.700Z,16.94
2022-08-31T01:53:49.404Z,16.92
2022-08-31T01:56:35.786Z,16.91
2022-08-31T01:59:08.064Z,16.88
2022-08-31T02:01:40.158Z,16.85
2022-08-31T02:04:11.749Z,16.80
2022-08-31T02:06:44.816Z,16.72
2022-08-31T02:09:11.732Z,16.72
2022-08-31T02:11:38.478Z,16.71
2022-08-31T02:14:06.926Z,16.71
2022-08-31T02:16:33.866Z,16.68
2022-08-31T02:19:00.619Z,16.68
2022-08-31T02:21:27.704Z,16.60
2022-08-31T02:23:54.408Z,16.61
2022-08-31T02:26:23.612Z,16.58
2022-08-31T02:28:50.175Z,16.57
2022-08-31T02:31:17.438Z,16.58
2022-08-31T02:33:46.503Z,16.53
2022-08-31T02:36:13.027Z,16.52
2022-08-31T02:38:40.382Z,16.50
2022-08-31T02:41:07.593Z,16.47
2022-08-31T02:43:34.133Z,16.47
2022-08-31T02:46:00.783Z,16.45
2022-08-31T02:48:27.504Z,16.44
2022-08-31T02:50:54.836Z,16.42
2022-08-31T02:53:27.425Z,16.38
2022-08-31T02:55:53.990Z,16.36
2022-08-31T02:58:23.942Z,16.29
2022-08-31T03:00:51.181Z,16.27
2022-08-31T03:03:18.829Z,16.23
2022-08-31T03:05:45.615Z,16.20
2022-08-31T03:08:12.143Z,16.21
2022-08-31T03:10:38.784Z,16.17
2022-08-31T03:13:05.678Z,16.18
2022-08-31T03:15:32.553Z,16.16
2022-08-31T03:18:06.780Z,16.10
2022-08-31T03:20:34.600Z,16.01
2022-08-31T03:23:01.517Z,16.04
2022-08-31T03:25:30.008Z,16.02
2022-08-31T03:27:56.812Z,16.00
2022-08-31T03:30:27.591Z,15.91
2022-08-31T03:33:02.324Z,15.92
2022-08-31T03:35:30.236Z,15.89
2022-08-31T03:38:01.057Z,15.89
2022-08-31T03:40:27.721Z,15.87
2022-08-31T03:42:54.358Z,15.82
2022-08-31T03:45:20.955Z,15.80
2022-08-31T03:47:47.542Z,15.75
2022-08-31T03:50:16.676Z,15.76
2022-08-31T03:52:43.228Z,15.74
2022-08-31T03:55:11.558Z,15.67
2022-08-31T03:57:38.353Z,15.67
2022-08-31T04:00:06.391Z,15.62
2022-08-31T04:02:37.367Z,15.61
2022-08-31T04:05:04.552Z,15.59
2022-08-31T04:07:31.160Z,15.56
2022-08-31T04:10:12.348Z,15.52
2022-08-31T04:12:39.930Z,15.48
2022-08-31T04:15:07.540Z,15.49
2022-08-31T04:17:34.695Z,15.41
2022-08-31T04:20:01.265Z,15.41
2022-08-31T04:22:27.929Z,15.35
2022-08-31T04:24:54.549Z,15.35
2022-08-31T04:27:21.046Z,15.32
2022-08-31T04:29:47.612Z,15.26
2022-08-31T04:32:14.242Z,15.25
2022-08-31T04:34:40.826Z,15.28
2022-08-31T04:37:09.910Z,15.26
2022-08-31T04:39:49.470Z,15.27
2022-08-31T04:42:18.028Z,15.25
2022-08-31T04:44:44.555Z,15.23
2022-08-31T04:47:11.246Z,15.22
2022-08-31T04:49:38.313Z,15.22
2022-08-31T04:52:08.288Z,15.21
2022-08-31T04:54:35.265Z,15.20
2022-08-31T04:57:01.905Z,15.22
2022-08-31T04:59:28.501Z,15.18
2022-08-31T05:01:55.876Z,15.16
2022-08-31T05:04:24.642Z,15.15
2022-08-31T05:06:54.185Z,15.13
2022-08-31T05:09:23.676Z,15.11
2022-08-31T05:11:55.039Z,15.17
2022-08-31T05:14:23.289Z,15.15
2022-08-31T05:16:50.692Z,15.16
2022-08-31T05:19:18.014Z,15.15
2022-08-31T05:21:45.291Z,15.19
2022-08-31T05:24:21.600Z,15.24
2022-08-31T05:26:54.216Z,15.28
2022-08-31T05:29:24.619Z,15.29
2022-08-31T05:31:52.617Z,15.39
2022-08-31T05:34:20.803Z,15.41
2022-08-31T05:36:51.623Z,15.52
2022-08-31T05:39:21.098Z,15.60
2022-08-31T05:41:48.939Z,15.67
2022-08-31T05:44:16.533Z,15.73
2022-08-31T05:46:43.723Z,15.82
2022-08-31T05:49:10.959Z,16.34
2022-08-31T05:51:38.914Z,17.60
2022-08-31T05:54:07.155Z,18.77
2022-08-31T05:56:34.575Z,18.77
2022-08-31T05:59:01.956Z,19.13
2022-08-31T06:01:31.912Z,18.83
2022-08-31T06:04:00.324Z,18.81
2022-08-31T06:06:27.613Z,18.78
2022-08-31T06:08:57.778Z,18.83
2022-08-31T06:11:27.426Z,18.85
2022-08-31T06:13:59.796Z,18.32
2022-08-31T06:16:30.273Z,18.07
2022-08-31T06:19:03.228Z,18.49
2022-08-31T06:21:31.650Z,18.50
2022-08-31T06:24:03.301Z,18.17
2022-08-31T06:26:32.597Z,18.36
2022-08-31T06:29:02.778Z,18.90
2022-08-31T06:31:47.029Z,19.93
2022-08-31T06:34:18.939Z,20.99
2022-08-31T06:36:46.297Z,21.82
2022-08-31T06:39:15.124Z,22.39
2022-08-31T06:41:41.745Z,23.02
2022-08-31T06:44:12.036Z,23.64
2022-08-31T06:46:42.280Z,23.81
2022-08-31T06:49:16.685Z,23.46
2022-08-31T06:51:43.939Z,24.07
2022-08-31T06:54:30.984Z,23.68
2022-08-31T06:57:02.857Z,24.80
2022-08-31T06:59:30.141Z,24.23
2022-08-31T07:02:01.298Z,24.70
2022-08-31T07:04:31.037Z,23.37
2022-08-31T07:06:57.692Z,23.01
2022-08-31T07:09:25.027Z,24.58
2022-08-31T07:11:52.370Z,24.71
2022-08-31T07:14:24.123Z,24.66
2022-08-31T07:16:53.343Z,24.35
2022-08-31T07:19:21.962Z,25.10
2022-08-31T07:21:51.918Z,25.52
2022-08-31T07:24:24.195Z,25.60
2022-08-31T07:26:58.200Z,25.69
2022-08-31T07:29:37.586Z,26.04
2022-08-31T07:32:04.246Z,26.12
2022-08-31T07:34:31.449Z,25.61
2022-08-31T07:37:18.249Z,25.69
2022-08-31T07:40:07.541Z,25.65
2022-08-31T07:42:43.915Z,25.69
2022-08-31T07:45:22.851Z,26.07
2022-08-31T07:47:56.551Z,26.37
2022-08-31T07:50:24.299Z,26.58
2022-08-31T07:52:55.636Z,26.61
2022-08-31T07:55:23.697Z,27.25
2022-08-31T07:57:53.347Z,26.83
2022-08-31T08:00:26.805Z,26.32
2022-08-31T08:02:54.131Z,26.44
2022-08-31T08:05:28.915Z,26.75
2022-08-31T08:08:05.563Z,27.37
2022-08-31T08:10:38.479Z,27.14
2022-08-31T08:13:06.853Z,27.01
2022-08-31T08:15:38.783Z,26.44
2022-08-31T08:18:07.968Z,26.64
2022-08-31T08:20:38.276Z,26.26
2022-08-31T08:23:14.530Z,26.96
2022-08-31T08:25:44.285Z,26.95
2022-08-31T08:28:38.204Z,26.80
2022-08-31T08:31:07.885Z,27.29
2022-08-31T08:33:37.733Z,27.32
2022-08-31T08:36:08.842Z,27.06
2022-08-31T08:38:39.364Z,26.40
2022-08-31T08:41:13.301Z,26.24
2022-08-31T08:43:43.763Z,26.78
2022-08-31T08:46:31.716Z,26.93
2022-08-31T08:49:09.376Z,26.76
2022-08-31T08:51:38.665Z,27.09
2022-08-31T08:54:20.434Z,26.75
2022-08-31T08:56:49.948Z,26.54
2022-08-31T08:59:20.018Z,26.56
2022-08-31T09:01:54.131Z,26.30
2022-08-31T09:04:35.171Z,25.97
2022-08-31T09:07:23.096Z,25.74
2022-08-31T09:10:01.272Z,25.49
2022-08-31T09:12:46.222Z,25.27
2022-08-31T09:15:37.440Z,25.02
2022-08-31T09:18:12.968Z,24.74
2022-08-31T09:20:43.263Z,24.60
2022-08-31T09:23:12.274Z,24.92
2022-08-31T09:25:52.181Z,25.14
2022-08-31T09:28:34.991Z,24.93
2022-08-31T09:31:02.126Z,24.61
2022-08-31T09:33:34.719Z,24.43
2022-08-31T09:36:33.662Z,24.11
2022-08-31T09:39:18.207Z,23.95
2022-08-31T09:41:45.978Z,23.89
2022-08-31T09:44:32.049Z,24.10
2022-08-31T09:47:04.069Z,23.99
2022-08-31T09:49:36.673Z,24.14
2022-08-31T09:52:48.091Z,24.04
2022-08-31T09:55:19.821Z,24.17
2022-08-31T09:57:54.048Z,24.04
2022-08-31T10:00:39.830Z,24.16
2022-08-31T10:03:29.989Z,24.04
2022-08-31T10:05:56.981Z,24.07
2022-08-31T10:08:58.164Z,24.14
2022-08-31T10:11:31.181Z,24.22
2022-08-31T10:14:08.849Z,24.49
2022-08-31T10:16:41.712Z,24.24
2022-08-31T10:19:30.417Z,24.21
2022-08-31T10:22:03.453Z,24.17
2022-08-31T10:24:46.154Z,24.00
2022-08-31T10:27:20.270Z,23.92
2022-08-31T10:29:49.315Z,23.77
2022-08-31T10:32:30.537Z,23.85
2022-08-31T10:35:19.475Z,23.92
2022-08-31T10:38:26.147Z,23.69
2022-08-31T10:41:06.753Z,23.70
2022-08-31T10:44:28.591Z,23.61
2022-08-31T10:47:02.965Z,23.66
2022-08-31T10:49:33.335Z,23.70
2022-08-31T10:52:11.857Z,23.72
2022-08-31T10:54:47.762Z,23.76
2022-08-31T10:57:32.498Z,23.69
2022-08-31T11:00:29.931Z,23.67
2022-08-31T11:03:10.605Z,23.66
2022-08-31T11:05:48.648Z,23.76
2022-08-31T11:08:49.090Z,23.82
2022-08-31T11:11:43.951Z,23.90
2022-08-31T11:14:29.403Z,23.96
2022-08-31T11:16:55.973Z,24.01
2022-08-31T11:19:50.711Z,24.20
2022-08-31T11:22:42.119Z,24.37
2022-08-31T11:25:48.134Z,24.44
2022-08-31T11:28:52.303Z,24.66
2022-08-31T11:31:24.213Z,24.61
2022-08-31T11:34:17.006Z,24.31
2022-08-31T11:36:50.331Z,24.28
2022-08-31T11:39:43.068Z,24.32
2022-08-31T11:42:27.467Z,24.29
2022-08-31T11:45:01.597Z,24.45
2022-08-31T11:47:28.241Z,24.67
2022-08-31T11:50:33.844Z,24.84
2022-08-31T11:53:20.655Z,24.92
2022-08-31T11:55:49.418Z,24.99
2022-08-31T11:58:26.560Z,24.94
2022-08-31T12:01:06.920Z,25.14
2022-08-31T12:03:50.706Z,25.16
2022-08-31T12:06:27.876Z,25.24
2022-08-31T12:09:20.412Z,25.46
2022-08-31T12:12:06.503Z,25.48
2022-08-31T12:14:50.236Z,25.59
2022-08-31T12:17:27.599Z,25.53
2022-08-31T12:20:32.288Z,25.53
2022-08-31T12:23:31.167Z,25.55
2022-08-31T12:26:10.171Z,25.73
2022-08-31T12:28:59.810Z,25.77
2022-08-31T12:31:26.804Z,25.73
2022-08-31T12:34:07.969Z,25.72
2022-08-31T12:36:36.718Z,25.81
2022-08-31T12:39:26.006Z,25.76
2022-08-31T12:41:56.788Z,25.91
2022-08-31T12:44:36.786Z,26.09
2022-08-31T12:47:24.372Z,26.20
2022-08-31T12:50:09.165Z,26.20
2022-08-31T12:53:20.121Z,26.17
2022-08-31T12:55:54.955Z,25.71
2022-08-31T12:58:41.590Z,26.32
2022-08-31T13:01:14.821Z,26.46
2022-08-31T13:03:54.249Z,26.46
2022-08-31T13:06:32.902Z,26.50
2022-08-31T13:09:00.981Z,26.30
2022-08-31T13:11:40.149Z,26.33
2022-08-31T13:14:20.041Z,26.37
2022-08-31T13:16:53.409Z,26.18
2022-08-31T13:19:39.414Z,26.07
2022-08-31T13:22:17.150Z,26.16
2022-08-31T13:24:53.983Z,26.12
2022-08-31T13:27:27.516Z,26.20
2022-08-31T13:29:58.746Z,26.07
2022-08-31T13:32:32.195Z,25.93
2022-08-31T13:35:05.941Z,25.95
2022-08-31T13:37:39.007Z,26.14
2022-08-31T13:40:13.177Z,26.22
2022-08-31T13:42:46.850Z,26.30
2022-08-31T13:45:30.269Z,26.17
2022-08-31T13:48:19.372Z,25.95
2022-08-31T13:50:56.206Z,26.02
2022-08-31T13:54:08.837Z,26.17
2022-08-31T13:56:57.973Z,26.35
2022-08-31T13:59:53.774Z,26.46
2022-08-31T14:02:21.673Z,26.48
2022-08-31T14:05:00.607Z,26.35
2022-08-31T14:07:39.201Z,26.21
2022-08-31T14:10:20.505Z,26.40
2022-08-31T14:12:57.495Z,26.44
2022-08-31T14:15:35.403Z,26.50
2022-08-31T14:18:26.130Z,26.49
2022-08-31T14:21:26.917Z,26.47
2022-08-31T14:24:01.730Z,26.31
2022-08-31T14:26:52.123Z,26.41
2022-08-31T14:29:21.003Z,26.48
2022-08-31T14:31:52.929Z,26.38
2022-08-31T14:34:25.900Z,26.50
2022-08-31T14:37:07.844Z,26.63
2022-08-31T14:39:41.817Z,26.75
2022-08-31T14:42:17.140Z,26.73
2022-08-31T14:44:53.727Z,26.61
2022-08-31T14:47:24.263Z,26.44
2022-08-31T14:49:54.817Z,26.28
2022-08-31T14:52:21.774Z,26.18
2022-08-31T14:54:48.585Z,26.12
2022-08-31T14:57:25.439Z,26.05
2022-08-31T14:59:59.683Z,26.07
2022-08-31T15:02:33.424Z,26.02
2022-08-31T15:05:06.547Z,25.95
2022-08-31T15:07:40.327Z,25.83
2022-08-31T15:10:12.890Z,25.82
2022-08-31T15:12:42.514Z,25.79
2022-08-31T15:15:11.294Z,25.70
2022-08-31T15:17:39.576Z,25.77
2022-08-31T15:20:08.078Z,25.81
2022-08-31T15:22:40.548Z,25.84
2022-08-31T15:25:11.936Z,25.81
2022-08-31T15:27:41.663Z,25.88
2022-08-31T15:30:09.366Z,25.77
2022-08-31T15:32:43.235Z,25.78
2022-08-31T15:35:22.295Z,25.81
2022-08-31T15:37:58.935Z,25.82
2022-08-31T15:40:29.155Z,25.68
2022-08-31T15:42:56.271Z,25.55
2022-08-31T15:45:23.602Z,25.62
2022-08-31T15:48:08.460Z,25.67
2022-08-31T15:50:35.945Z,25.64
2022-08-31T15:53:11.965Z,25.62
2022-08-31T15:55:42.542Z,25.63
2022-08-31T15:58:12.721Z,25.70
2022-08-31T16:00:41.866Z,25.66
2022-08-31T16:03:08.960Z,25.77
2022-08-31T16:05:39.393Z,25.84
2022-08-31T16:08:10.651Z,25.79
2022-08-31T16:10:41.494Z,25.64
2022-08-31T16:13:09.341Z,25.50
2022-08-31T16:15:37.792Z,25.49
2022-08-31T16:18:05.850Z,25.53
2022-08-31T16:20:32.742Z,25.54
2022-08-31T16:23:00.698Z,25.54
2022-08-31T16:25:30.454Z,25.53
2022-08-31T16:28:14.699Z,25.46
2022-08-31T16:30:43.692Z,25.36
2022-08-31T16:33:11.193Z,25.36
2022-08-31T16:35:39.331Z,25.20
2022-08-31T16:38:08.345Z,25.14
2022-08-31T16:40:37.449Z,25.04
2022-08-31T16:43:06.426Z,25.06
2022-08-31T16:45:33.288Z,25.00
2022-08-31T16:48:20.291Z,25.08
2022-08-31T16:50:48.683Z,25.03
2022-08-31T16:53:18.210Z,24.92
2022-08-31T16:55:47.445Z,24.86
2022-08-31T16:58:24.914Z,24.86
2022-08-31T17:01:11.977Z,24.80
2022-08-31T17:03:47.190Z,24.72
2022-08-31T17:06:14.047Z,24.73
2022-08-31T17:08:47.310Z,24.74
2022-08-31T17:11:22.499Z,24.68
2022-08-31T17:13:52.752Z,24.64
2022-08-31T17:16:23.751Z,24.63
2022-08-31T17:18:52.644Z,24.59
2022-08-31T17:21:24.984Z,24.52
2022-08-31T17:23:52.753Z,24.46
2022-08-31T17:26:23.085Z,24.42
2022-08-31T17:29:01.799Z,24.41
2022-08-31T17:31:31.571Z,24.39
2022-08-31T17:33:59.074Z,24.45
2022-08-31T17:36:32.288Z,24.30
2022-08-31T17:39:00.836Z,24.26
2022-08-31T17:41:28.285Z,24.09
2022-08-31T17:43:58.485Z,24.02
2022-08-31T17:46:25.992Z,23.93
2022-08-31T17:49:01.145Z,23.84
2022-08-31T17:51:35.277Z,23.71
2022-08-31T17:54:11.242Z,23.58
2022-08-31T17:56:47.640Z,23.53
2022-08-31T17:59:21.333Z,23.47
2022-08-31T18:01:52.341Z,23.39
2022-08-31T18:04:20.530Z,23.33
2022-08-31T18:06:51.501Z,23.26
2022-08-31T18:09:19.770Z,23.20
2022-08-31T18:11:48.998Z,23.09
2022-08-31T18:14:21.494Z,23.05
2022-08-31T18:16:49.379Z,23.00
2022-08-31T18:19:25.575Z,22.95
2022-08-31T18:21:58.366Z,22.88
2022-08-31T18:24:25.796Z,22.80
2022-08-31T18:26:56.810Z,22.75
2022-08-31T18:29:24.952Z,22.64
2022-08-31T18:31:56.750Z,22.61
2022-08-31T18:34:24.691Z,22.57
2022-08-31T18:36:53.711Z,22.48
2022-08-31T18:39:47.730Z,22.42
2022-08-31T18:42:27.893Z,22.31
2022-08-31T18:45:20.520Z,22.28
2022-08-31T18:48:20.978Z,22.25
2022-08-31T18:50:47.952Z,22.21
2022-08-31T18:53:27.532Z,22.12
2022-08-31T18:55:56.865Z,21.98
2022-08-31T18:58:23.504Z,22.04
2022-08-31T19:00:58.388Z,21.96
2022-08-31T19:03:27.393Z,21.89
2022-08-31T19:05:54.469Z,21.86
2022-08-31T19:08:21.087Z,21.81
2022-08-31T19:10:49.127Z,21.67
2022-08-31T19:13:16.207Z,21.71
2022-08-31T19:15:43.767Z,21.68
2022-08-31T19:18:10.329Z,21.66
2022-08-31T19:20:37.028Z,21.59
2022-08-31T19:23:06.410Z,21.57
2022-08-31T19:25:33.051Z,21.54
2022-08-31T19:28:01.581Z,21.52
2022-08-31T19:30:33.450Z,21.45
2022-08-31T19:33:07.501Z,21.47
2022-08-31T19:35:36.169Z,21.44
2022-08-31T19:38:02.860Z,21.43
2022-08-31T19:40:38.132Z,21.41
2022-08-31T19:45:53.604Z,21.36
2022-08-31T19:48:23.271Z,21.37
2022-08-31T19:50:58.124Z,21.38
2022-08-31T19:53:27.755Z,21.41
2022-08-31T19:55:57.424Z,21.43
2022-08-31T19:58:26.667Z,21.42
2022-08-31T20:01:00.584Z,21.42
2022-08-31T20:03:28.275Z,21.42
2022-08-31T20:05:59.483Z,21.41
2022-08-31T20:08:28.536Z,21.36
2022-08-31T20:10:55.108Z,21.41
2022-08-31T20:13:24.145Z,21.33
2022-08-31T20:15:52.919Z,21.30
2022-08-31T20:18:20.124Z,21.26
2022-08-31T20:20:48.429Z,21.25
2022-08-31T20:23:17.151Z,21.22
2022-08-31T20:25:51.740Z,21.09
2022-08-31T20:28:26.414Z,21.08
2022-08-31T20:30:59.921Z,21.05
2022-08-31T20:33:27.476Z,21.04
2022-08-31T20:35:54.181Z,20.96
2022-08-31T20:38:20.945Z,20.90
2022-08-31T20:40:52.110Z,20.87
2022-08-31T20:43:21.344Z,20.81
2022-08-31T20:45:50.958Z,20.74
2022-08-31T20:48:35.950Z,20.64
2022-08-31T20:51:16.397Z,20.59
2022-08-31T20:53:44.518Z,20.51
2022-08-31T20:56:17.082Z,20.40
2022-08-31T20:58:45.329Z,20.36
2022-08-31T21:01:13.625Z,20.35
2022-08-31T21:03:40.819Z,20.28
2022-08-31T21:06:11.204Z,20.20
2022-08-31T21:08:39.937Z,20.15
2022-08-31T21:11:16.123Z,20.05
2022-08-31T21:13:44.471Z,19.97
2022-08-31T21:16:11.201Z,19.96
2022-08-31T21:18:40.753Z,19.88
2022-08-31T21:21:10.022Z,19.85
2022-08-31T21:23:38.345Z,19.76
2022-08-31T21:26:08.680Z,19.67
2022-08-31T21:28:38.907Z,19.67
2022-08-31T21:31:16.579Z,19.61
2022-08-31T21:33:46.409Z,19.58
2022-08-31T21:36:15.287Z,19.51
2022-08-31T21:38:43.599Z,19.52
2022-08-31T21:41:12.325Z,19.43
2022-08-31T21:43:40.153Z,19.44
2022-08-31T21:46:21.364Z,19.39
2022-08-31T21:48:49.238Z,19.34
2022-08-31T21:51:42.119Z,19.32
2022-08-31T21:54:09.545Z,19.16
2022-08-31T21:56:46.165Z,19.12
2022-08-31T21:59:16.101Z,19.06
2022-08-31T22:01:44.002Z,18.91
2022-08-31T22:04:12.257Z,18.82
2022-08-31T22:06:40.867Z,18.80
2022-08-31T22:09:12.035Z,18.76
2022-08-31T22:11:41.780Z,18.70
2022-08-31T22:14:12.944Z,18.63
2022-08-31T22:16:40.790Z,18.50
2022-08-31T22:19:13.305Z,18.52
2022-08-31T22:21:43.143Z,18.47
2022-08-31T22:24:13.253Z,18.40
2022-08-31T22:26:56.537Z,18.30
2022-08-31T22:29:28.628Z,18.27
2022-08-31T22:31:58.179Z,18.21
2022-08-31T22:34:25.731Z,18.14
2022-08-31T22:36:54.333Z,18.07
2022-08-31T22:39:25.511Z,18.01
2022-08-31T22:41:53.062Z,17.94
2022-08-31T22:44:26.018Z,17.93
2022-08-31T22:46:56.236Z,17.85
2022-08-31T22:49:23.874Z,17.81
2022-08-31T22:51:50.486Z,17.78
2022-08-31T22:54:19.215Z,17.72
2022-08-31T22:56:46.329Z,17.62
2022-08-31T22:59:16.937Z,17.63
2022-08-31T23:01:47.914Z,17.58
2022-08-31T23:04:20.231Z,17.49
2022-08-31T23:06:49.438Z,17.40
2022-08-31T23:09:21.066Z,17.43
2022-08-31T23:11:51.481Z,17.41
2022-08-31T23:14:20.970Z,17.31
2022-08-31T23:16:55.145Z,17.32
2022-08-31T23:19:26.275Z,17.32
2022-08-31T23:21:57.517Z,17.30
2022-08-31T23:24:46.939Z,17.27
2022-08-31T23:27:17.085Z,17.28
2022-08-31T23:29:47.256Z,17.26
2022-08-31T23:32:18.201Z,17.24
2022-08-31T23:34:46.595Z,17.22
2022-08-31T23:37:17.472Z,17.19
2022-08-31T23:39:44.980Z,17.10
2022-08-31T23:42:13.845Z,17.17
2022-08-31T23:44:43.648Z,17.14
2022-08-31T23:47:21.566Z,17.08
2022-08-31T23:49:51.431Z,17.04
2022-08-31T23:52:22.763Z,17.11
2022-08-31T23:54:52.368Z,17.12
2022-08-31T23:57:32.659Z,17.05
